sensor_id;sensor_type;location;lat;lon;timestamp;P1;durP1;ratioP1;P2;durP2;ratioP2
33844;SDS011;20145;43.118;25.694;2023-11-21T00:02:21;4.63;;;3.53;;
33844;SDS011;20145;43.118;25.694;2023-11-21T00:04:47;5.00;;;3.55;;
33844;SDS011;20145;43.118;25.694;2023-11-21T00:07:13;4.25;;;3.40;;
33844;SDS011;20145;43.118;25.694;2023-11-21T00:09:40;5.35;;;3.53;;
33844;SDS011;20145;43.118;25.694;2023-11-21T00:12:07;3.70;;;3.33;;
33844;SDS011;20145;43.118;25.694;2023-11-21T00:17:05;3.58;;;2.60;;
33844;SDS011;20145;43.118;25.694;2023-11-21T00:19:31;4.03;;;3.20;;
33844;SDS011;20145;43.118;25.694;2023-11-21T00:21:59;4.82;;;3.30;;
33844;SDS011;20145;43.118;25.694;2023-11-21T00:24:27;5.18;;;3.40;;
33844;SDS011;20145;43.118;25.694;2023-11-21T00:29:22;5.78;;;3.40;;
33844;SDS011;20145;43.118;25.694;2023-11-21T00:31:48;5.85;;;4.13;;
33844;SDS011;20145;43.118;25.694;2023-11-21T00:34:19;5.07;;;3.50;;
33844;SDS011;20145;43.118;25.694;2023-11-21T00:36:46;7.18;;;4.55;;
33844;SDS011;20145;43.118;25.694;2023-11-21T00:39:11;4.50;;;3.92;;
33844;SDS011;20145;43.118;25.694;2023-11-21T00:41:37;6.45;;;4.15;;
33844;SDS011;20145;43.118;25.694;2023-11-21T00:44:04;5.10;;;4.03;;
33844;SDS011;20145;43.118;25.694;2023-11-21T00:46:29;7.13;;;4.03;;
33844;SDS011;20145;43.118;25.694;2023-11-21T00:48:58;6.38;;;4.10;;
33844;SDS011;20145;43.118;25.694;2023-11-21T00:51:24;4.30;;;3.50;;
33844;SDS011;20145;43.118;25.694;2023-11-21T00:53:49;4.63;;;3.20;;
33844;SDS011;20145;43.118;25.694;2023-11-21T00:56:15;7.15;;;3.78;;
33844;SDS011;20145;43.118;25.694;2023-11-21T00:58:41;6.15;;;4.53;;
33844;SDS011;20145;43.118;25.694;2023-11-21T01:01:16;5.38;;;4.00;;
33844;SDS011;20145;43.118;25.694;2023-11-21T01:03:42;7.03;;;4.30;;
33844;SDS011;20145;43.118;25.694;2023-11-21T01:06:08;7.00;;;4.43;;
33844;SDS011;20145;43.118;25.694;2023-11-21T01:08:34;4.78;;;3.92;;
33844;SDS011;20145;43.118;25.694;2023-11-21T01:11:02;6.57;;;3.30;;
33844;SDS011;20145;43.118;25.694;2023-11-21T01:13:27;7.43;;;3.25;;
33844;SDS011;20145;43.118;25.694;2023-11-21T01:15:53;9.90;;;3.80;;
33844;SDS011;20145;43.118;25.694;2023-11-21T01:18:19;4.28;;;2.90;;
33844;SDS011;20145;43.118;25.694;2023-11-21T01:20:46;7.07;;;3.30;;
33844;SDS011;20145;43.118;25.694;2023-11-21T01:23:12;4.70;;;3.35;;
33844;SDS011;20145;43.118;25.694;2023-11-21T01:25:38;4.28;;;2.22;;
33844;SDS011;20145;43.118;25.694;2023-11-21T01:28:04;5.22;;;2.60;;
33844;SDS011;20145;43.118;25.694;2023-11-21T01:30:30;3.35;;;2.47;;
33844;SDS011;20145;43.118;25.694;2023-11-21T01:32:57;3.75;;;2.28;;
33844;SDS011;20145;43.118;25.694;2023-11-21T01:35:24;2.50;;;2.30;;
33844;SDS011;20145;43.118;25.694;2023-11-21T01:37:49;3.53;;;2.20;;
33844;SDS011;20145;43.118;25.694;2023-11-21T01:40:15;3.28;;;2.35;;
33844;SDS011;20145;43.118;25.694;2023-11-21T01:42:42;4.88;;;2.17;;
33844;SDS011;20145;43.118;25.694;2023-11-21T01:45:09;4.95;;;3.03;;
33844;SDS011;20145;43.118;25.694;2023-11-21T01:47:35;5.85;;;2.50;;
33844;SDS011;20145;43.118;25.694;2023-11-21T01:50:03;3.45;;;2.50;;
33844;SDS011;20145;43.118;25.694;2023-11-21T01:52:31;3.78;;;2.90;;
33844;SDS011;20145;43.118;25.694;2023-11-21T01:54:58;5.80;;;3.33;;
33844;SDS011;20145;43.118;25.694;2023-11-21T01:57:25;5.78;;;3.28;;
33844;SDS011;20145;43.118;25.694;2023-11-21T01:59:51;4.88;;;3.65;;
33844;SDS011;20145;43.118;25.694;2023-11-21T02:02:19;6.55;;;3.88;;
33844;SDS011;20145;43.118;25.694;2023-11-21T02:04:45;3.58;;;2.90;;
33844;SDS011;20145;43.118;25.694;2023-11-21T02:07:10;4.90;;;2.60;;
33844;SDS011;20145;43.118;25.694;2023-11-21T02:09:36;3.50;;;2.90;;
33844;SDS011;20145;43.118;25.694;2023-11-21T02:12:08;7.07;;;2.50;;
33844;SDS011;20145;43.118;25.694;2023-11-21T02:14:35;4.88;;;2.80;;
33844;SDS011;20145;43.118;25.694;2023-11-21T02:17:02;3.92;;;2.42;;
33844;SDS011;20145;43.118;25.694;2023-11-21T02:19:28;2.90;;;2.55;;
33844;SDS011;20145;43.118;25.694;2023-11-21T02:21:56;3.28;;;2.40;;
33844;SDS011;20145;43.118;25.694;2023-11-21T02:24:31;2.90;;;2.13;;
33844;SDS011;20145;43.118;25.694;2023-11-21T02:26:57;5.38;;;3.20;;
33844;SDS011;20145;43.118;25.694;2023-11-21T02:29:23;3.13;;;2.58;;
33844;SDS011;20145;43.118;25.694;2023-11-21T02:31:53;3.35;;;2.53;;
33844;SDS011;20145;43.118;25.694;2023-11-21T02:34:21;2.38;;;1.90;;
33844;SDS011;20145;43.118;25.694;2023-11-21T02:36:47;2.65;;;2.15;;
33844;SDS011;20145;43.118;25.694;2023-11-21T02:39:15;4.00;;;2.40;;
33844;SDS011;20145;43.118;25.694;2023-11-21T02:41:42;2.88;;;1.98;;
33844;SDS011;20145;43.118;25.694;2023-11-21T02:44:09;3.58;;;2.47;;
33844;SDS011;20145;43.118;25.694;2023-11-21T02:46:35;2.55;;;2.35;;
33844;SDS011;20145;43.118;25.694;2023-11-21T02:49:03;3.45;;;2.30;;
33844;SDS011;20145;43.118;25.694;2023-11-21T02:51:31;2.10;;;1.90;;
33844;SDS011;20145;43.118;25.694;2023-11-21T02:54:00;4.85;;;2.40;;
33844;SDS011;20145;43.118;25.694;2023-11-21T02:56:29;3.92;;;2.78;;
33844;SDS011;20145;43.118;25.694;2023-11-21T02:58:58;8.10;;;4.00;;
33844;SDS011;20145;43.118;25.694;2023-11-21T03:01:25;3.40;;;2.60;;
33844;SDS011;20145;43.118;25.694;2023-11-21T03:03:51;3.55;;;2.83;;
33844;SDS011;20145;43.118;25.694;2023-11-21T03:06:18;3.78;;;3.38;;
33844;SDS011;20145;43.118;25.694;2023-11-21T03:08:47;5.38;;;3.38;;
33844;SDS011;20145;43.118;25.694;2023-11-21T03:11:13;5.28;;;2.88;;
33844;SDS011;20145;43.118;25.694;2023-11-21T03:13:41;6.93;;;3.50;;
33844;SDS011;20145;43.118;25.694;2023-11-21T03:16:08;3.85;;;3.35;;
33844;SDS011;20145;43.118;25.694;2023-11-21T03:18:37;3.03;;;2.70;;
33844;SDS011;20145;43.118;25.694;2023-11-21T03:21:04;4.47;;;2.85;;
33844;SDS011;20145;43.118;25.694;2023-11-21T03:23:30;3.83;;;2.92;;
33844;SDS011;20145;43.118;25.694;2023-11-21T03:25:57;4.50;;;3.03;;
33844;SDS011;20145;43.118;25.694;2023-11-21T03:28:23;4.45;;;2.97;;
33844;SDS011;20145;43.118;25.694;2023-11-21T03:30:49;2.67;;;2.42;;
33844;SDS011;20145;43.118;25.694;2023-11-21T03:33:14;6.57;;;2.95;;
33844;SDS011;20145;43.118;25.694;2023-11-21T03:35:40;4.68;;;2.72;;
33844;SDS011;20145;43.118;25.694;2023-11-21T03:38:07;3.03;;;2.20;;
33844;SDS011;20145;43.118;25.694;2023-11-21T03:40:33;2.97;;;2.47;;
33844;SDS011;20145;43.118;25.694;2023-11-21T03:42:58;2.80;;;2.50;;
33844;SDS011;20145;43.118;25.694;2023-11-21T03:45:24;4.07;;;3.15;;
33844;SDS011;20145;43.118;25.694;2023-11-21T03:47:49;3.83;;;2.45;;
33844;SDS011;20145;43.118;25.694;2023-11-21T03:50:15;2.53;;;2.33;;
33844;SDS011;20145;43.118;25.694;2023-11-21T03:52:41;2.83;;;2.20;;
33844;SDS011;20145;43.118;25.694;2023-11-21T03:55:07;3.75;;;2.72;;
33844;SDS011;20145;43.118;25.694;2023-11-21T03:57:34;2.97;;;2.47;;
33844;SDS011;20145;43.118;25.694;2023-11-21T03:59:59;5.00;;;2.90;;
33844;SDS011;20145;43.118;25.694;2023-11-21T04:02:25;4.05;;;2.72;;
33844;SDS011;20145;43.118;25.694;2023-11-21T04:04:51;4.90;;;2.70;;
33844;SDS011;20145;43.118;25.694;2023-11-21T04:07:17;4.15;;;2.45;;
33844;SDS011;20145;43.118;25.694;2023-11-21T04:09:43;3.78;;;2.72;;
33844;SDS011;20145;43.118;25.694;2023-11-21T04:12:08;4.55;;;3.10;;
33844;SDS011;20145;43.118;25.694;2023-11-21T04:14:35;3.70;;;3.13;;
33844;SDS011;20145;43.118;25.694;2023-11-21T04:17:00;7.43;;;3.75;;
33844;SDS011;20145;43.118;25.694;2023-11-21T04:19:26;3.80;;;3.15;;
33844;SDS011;20145;43.118;25.694;2023-11-21T04:21:52;5.03;;;3.10;;
33844;SDS011;20145;43.118;25.694;2023-11-21T04:24:23;5.18;;;3.17;;
33844;SDS011;20145;43.118;25.694;2023-11-21T04:26:49;4.03;;;3.20;;
33844;SDS011;20145;43.118;25.694;2023-11-21T04:29:14;3.70;;;3.38;;
33844;SDS011;20145;43.118;25.694;2023-11-21T04:31:40;4.05;;;3.00;;
33844;SDS011;20145;43.118;25.694;2023-11-21T04:34:07;3.05;;;2.72;;
33844;SDS011;20145;43.118;25.694;2023-11-21T04:36:33;3.90;;;2.72;;
33844;SDS011;20145;43.118;25.694;2023-11-21T04:39:00;2.95;;;2.65;;
33844;SDS011;20145;43.118;25.694;2023-11-21T04:41:26;3.17;;;2.88;;
33844;SDS011;20145;43.118;25.694;2023-11-21T04:43:52;3.20;;;2.72;;
33844;SDS011;20145;43.118;25.694;2023-11-21T04:46:17;5.18;;;2.33;;
33844;SDS011;20145;43.118;25.694;2023-11-21T04:48:43;4.35;;;2.05;;
33844;SDS011;20145;43.118;25.694;2023-11-21T04:51:09;2.58;;;1.90;;
33844;SDS011;20145;43.118;25.694;2023-11-21T04:53:39;3.40;;;2.45;;
33844;SDS011;20145;43.118;25.694;2023-11-21T04:56:04;2.47;;;2.10;;
33844;SDS011;20145;43.118;25.694;2023-11-21T04:58:30;6.15;;;3.55;;
33844;SDS011;20145;43.118;25.694;2023-11-21T05:00:57;3.17;;;2.13;;
33844;SDS011;20145;43.118;25.694;2023-11-21T05:03:22;2.83;;;1.98;;
33844;SDS011;20145;43.118;25.694;2023-11-21T05:05:49;2.75;;;2.40;;
33844;SDS011;20145;43.118;25.694;2023-11-21T05:08:14;2.42;;;1.85;;
33844;SDS011;20145;43.118;25.694;2023-11-21T05:10:40;3.53;;;2.42;;
33844;SDS011;20145;43.118;25.694;2023-11-21T05:13:05;2.95;;;2.75;;
33844;SDS011;20145;43.118;25.694;2023-11-21T05:15:35;9.32;;;3.00;;
33844;SDS011;20145;43.118;25.694;2023-11-21T05:18:01;5.57;;;3.22;;
33844;SDS011;20145;43.118;25.694;2023-11-21T05:20:27;5.10;;;3.63;;
33844;SDS011;20145;43.118;25.694;2023-11-21T05:22:53;7.93;;;3.35;;
33844;SDS011;20145;43.118;25.694;2023-11-21T05:25:19;13.27;;;7.03;;
33844;SDS011;20145;43.118;25.694;2023-11-21T05:27:48;8.27;;;4.50;;
33844;SDS011;20145;43.118;25.694;2023-11-21T05:30:13;6.38;;;4.38;;
33844;SDS011;20145;43.118;25.694;2023-11-21T05:32:39;13.13;;;7.50;;
33844;SDS011;20145;43.118;25.694;2023-11-21T05:35:09;11.98;;;6.07;;
33844;SDS011;20145;43.118;25.694;2023-11-21T05:37:39;10.70;;;7.63;;
33844;SDS011;20145;43.118;25.694;2023-11-21T05:40:05;11.80;;;6.38;;
33844;SDS011;20145;43.118;25.694;2023-11-21T05:42:33;10.27;;;6.00;;
33844;SDS011;20145;43.118;25.694;2023-11-21T05:44:59;11.98;;;6.47;;
33844;SDS011;20145;43.118;25.694;2023-11-21T05:47:35;12.65;;;5.28;;
33844;SDS011;20145;43.118;25.694;2023-11-21T05:50:02;7.40;;;5.45;;
33844;SDS011;20145;43.118;25.694;2023-11-21T05:52:29;11.15;;;4.72;;
33844;SDS011;20145;43.118;25.694;2023-11-21T05:54:55;6.95;;;4.95;;
33844;SDS011;20145;43.118;25.694;2023-11-21T05:57:20;5.05;;;4.30;;
33844;SDS011;20145;43.118;25.694;2023-11-21T05:59:48;4.22;;;3.80;;
33844;SDS011;20145;43.118;25.694;2023-11-21T06:02:14;36.42;;;25.55;;
33844;SDS011;20145;43.118;25.694;2023-11-21T06:04:40;39.25;;;27.77;;
33844;SDS011;20145;43.118;25.694;2023-11-21T06:07:05;37.13;;;23.58;;
33844;SDS011;20145;43.118;25.694;2023-11-21T06:09:32;40.08;;;24.80;;
33844;SDS011;20145;43.118;25.694;2023-11-21T06:11:57;49.38;;;25.15;;
33844;SDS011;20145;43.118;25.694;2023-11-21T06:14:23;42.28;;;26.92;;
33844;SDS011;20145;43.118;25.694;2023-11-21T06:16:49;49.70;;;35.65;;
33844;SDS011;20145;43.118;25.694;2023-11-21T06:19:16;56.08;;;40.67;;
33844;SDS011;20145;43.118;25.694;2023-11-21T06:21:45;61.85;;;41.78;;
33844;SDS011;20145;43.118;25.694;2023-11-21T06:24:12;63.42;;;40.65;;
33844;SDS011;20145;43.118;25.694;2023-11-21T06:26:37;52.17;;;34.88;;
33844;SDS011;20145;43.118;25.694;2023-11-21T06:29:03;42.58;;;28.55;;
33844;SDS011;20145;43.118;25.694;2023-11-21T06:31:29;38.75;;;26.10;;
33844;SDS011;20145;43.118;25.694;2023-11-21T06:33:55;25.90;;;17.75;;
33844;SDS011;20145;43.118;25.694;2023-11-21T06:36:21;20.88;;;14.57;;
33844;SDS011;20145;43.118;25.694;2023-11-21T06:38:46;21.13;;;11.85;;
33844;SDS011;20145;43.118;25.694;2023-11-21T06:41:12;14.30;;;10.88;;
33844;SDS011;20145;43.118;25.694;2023-11-21T06:43:41;15.82;;;10.23;;
33844;SDS011;20145;43.118;25.694;2023-11-21T06:46:14;14.97;;;10.27;;
33844;SDS011;20145;43.118;25.694;2023-11-21T06:48:42;20.33;;;15.50;;
33844;SDS011;20145;43.118;25.694;2023-11-21T06:51:08;37.13;;;22.92;;
33844;SDS011;20145;43.118;25.694;2023-11-21T06:53:33;43.08;;;27.05;;
33844;SDS011;20145;43.118;25.694;2023-11-21T06:55:59;69.93;;;49.35;;
33844;SDS011;20145;43.118;25.694;2023-11-21T06:58:24;72.30;;;53.22;;
33844;SDS011;20145;43.118;25.694;2023-11-21T07:00:50;66.95;;;56.30;;
33844;SDS011;20145;43.118;25.694;2023-11-21T07:03:17;58.65;;;49.58;;
33844;SDS011;20145;43.118;25.694;2023-11-21T07:05:44;57.47;;;48.65;;
33844;SDS011;20145;43.118;25.694;2023-11-21T07:08:10;47.63;;;39.70;;
33844;SDS011;20145;43.118;25.694;2023-11-21T07:10:37;43.20;;;32.67;;
33844;SDS011;20145;43.118;25.694;2023-11-21T07:13:03;43.55;;;31.65;;
33844;SDS011;20145;43.118;25.694;2023-11-21T07:15:29;35.00;;;28.13;;
33844;SDS011;20145;43.118;25.694;2023-11-21T07:17:54;38.28;;;26.75;;
33844;SDS011;20145;43.118;25.694;2023-11-21T07:20:20;38.05;;;27.05;;
33844;SDS011;20145;43.118;25.694;2023-11-21T07:22:46;32.13;;;26.33;;
33844;SDS011;20145;43.118;25.694;2023-11-21T07:25:12;39.60;;;27.23;;
33844;SDS011;20145;43.118;25.694;2023-11-21T07:27:37;45.53;;;26.58;;
33844;SDS011;20145;43.118;25.694;2023-11-21T07:30:03;40.47;;;29.08;;
33844;SDS011;20145;43.118;25.694;2023-11-21T07:32:31;38.35;;;27.13;;
33844;SDS011;20145;43.118;25.694;2023-11-21T07:34:57;42.75;;;28.42;;
33844;SDS011;20145;43.118;25.694;2023-11-21T07:37:27;42.00;;;27.55;;
33844;SDS011;20145;43.118;25.694;2023-11-21T07:39:55;44.40;;;32.17;;
33844;SDS011;20145;43.118;25.694;2023-11-21T07:42:24;38.47;;;29.80;;
33844;SDS011;20145;43.118;25.694;2023-11-21T07:44:51;37.22;;;28.85;;
33844;SDS011;20145;43.118;25.694;2023-11-21T07:47:17;37.42;;;26.55;;
33844;SDS011;20145;43.118;25.694;2023-11-21T07:49:43;38.70;;;28.02;;
33844;SDS011;20145;43.118;25.694;2023-11-21T07:52:10;38.13;;;25.98;;
33844;SDS011;20145;43.118;25.694;2023-11-21T07:54:35;41.65;;;27.63;;
33844;SDS011;20145;43.118;25.694;2023-11-21T07:57:01;37.85;;;27.23;;
33844;SDS011;20145;43.118;25.694;2023-11-21T07:59:29;27.42;;;22.90;;
33844;SDS011;20145;43.118;25.694;2023-11-21T08:01:55;28.75;;;19.45;;
33844;SDS011;20145;43.118;25.694;2023-11-21T08:04:20;28.27;;;20.05;;
33844;SDS011;20145;43.118;25.694;2023-11-21T08:06:46;26.45;;;18.55;;
33844;SDS011;20145;43.118;25.694;2023-11-21T08:09:11;24.52;;;17.73;;
33844;SDS011;20145;43.118;25.694;2023-11-21T08:11:37;18.92;;;15.13;;
33844;SDS011;20145;43.118;25.694;2023-11-21T08:14:04;24.80;;;15.82;;
33844;SDS011;20145;43.118;25.694;2023-11-21T08:16:30;25.67;;;15.10;;
33844;SDS011;20145;43.118;25.694;2023-11-21T08:18:56;19.52;;;13.55;;
33844;SDS011;20145;43.118;25.694;2023-11-21T08:21:21;15.85;;;11.75;;
33844;SDS011;20145;43.118;25.694;2023-11-21T08:23:50;20.52;;;16.50;;
33844;SDS011;20145;43.118;25.694;2023-11-21T08:26:19;16.73;;;11.63;;
33844;SDS011;20145;43.118;25.694;2023-11-21T08:28:45;14.63;;;8.98;;
33844;SDS011;20145;43.118;25.694;2023-11-21T08:31:12;10.15;;;7.68;;
33844;SDS011;20145;43.118;25.694;2023-11-21T08:33:38;12.68;;;8.32;;
33844;SDS011;20145;43.118;25.694;2023-11-21T08:36:12;13.07;;;9.07;;
33844;SDS011;20145;43.118;25.694;2023-11-21T08:38:38;11.95;;;6.80;;
33844;SDS011;20145;43.118;25.694;2023-11-21T08:41:06;7.70;;;5.93;;
33844;SDS011;20145;43.118;25.694;2023-11-21T08:43:35;13.85;;;6.40;;
33844;SDS011;20145;43.118;25.694;2023-11-21T08:48:30;17.40;;;15.70;;
33844;SDS011;20145;43.118;25.694;2023-11-21T08:50:56;25.10;;;20.35;;
33844;SDS011;20145;43.118;25.694;2023-11-21T08:53:22;20.75;;;18.70;;
33844;SDS011;20145;43.118;25.694;2023-11-21T08:55:48;29.77;;;18.05;;
33844;SDS011;20145;43.118;25.694;2023-11-21T08:58:15;12.68;;;11.38;;
33844;SDS011;20145;43.118;25.694;2023-11-21T09:00:41;10.85;;;9.73;;
33844;SDS011;20145;43.118;25.694;2023-11-21T09:03:07;5.85;;;4.65;;
33844;SDS011;20145;43.118;25.694;2023-11-21T09:05:37;5.45;;;3.10;;
33844;SDS011;20145;43.118;25.694;2023-11-21T09:08:04;4.65;;;2.85;;
33844;SDS011;20145;43.118;25.694;2023-11-21T09:10:29;5.60;;;3.78;;
33844;SDS011;20145;43.118;25.694;2023-11-21T09:12:55;4.07;;;2.75;;
33844;SDS011;20145;43.118;25.694;2023-11-21T09:15:20;5.43;;;3.30;;
33844;SDS011;20145;43.118;25.694;2023-11-21T09:17:46;5.07;;;2.70;;
33844;SDS011;20145;43.118;25.694;2023-11-21T09:20:12;5.32;;;2.80;;
33844;SDS011;20145;43.118;25.694;2023-11-21T09:22:40;3.22;;;1.90;;
33844;SDS011;20145;43.118;25.694;2023-11-21T09:25:06;4.70;;;1.88;;
33844;SDS011;20145;43.118;25.694;2023-11-21T09:27:33;6.03;;;2.22;;
33844;SDS011;20145;43.118;25.694;2023-11-21T09:30:01;4.28;;;1.88;;
33844;SDS011;20145;43.118;25.694;2023-11-21T09:32:26;3.25;;;2.00;;
33844;SDS011;20145;43.118;25.694;2023-11-21T09:34:52;3.33;;;2.00;;
33844;SDS011;20145;43.118;25.694;2023-11-21T09:37:20;3.78;;;2.08;;
33844;SDS011;20145;43.118;25.694;2023-11-21T09:39:46;4.80;;;3.35;;
33844;SDS011;20145;43.118;25.694;2023-11-21T09:42:14;6.70;;;3.33;;
33844;SDS011;20145;43.118;25.694;2023-11-21T09:44:56;2.78;;;2.10;;
33844;SDS011;20145;43.118;25.694;2023-11-21T09:47:30;5.18;;;3.28;;
33844;SDS011;20145;43.118;25.694;2023-11-21T09:50:01;5.82;;;3.85;;
33844;SDS011;20145;43.118;25.694;2023-11-21T09:52:27;8.20;;;4.30;;
33844;SDS011;20145;43.118;25.694;2023-11-21T09:54:54;15.98;;;9.77;;
33844;SDS011;20145;43.118;25.694;2023-11-21T09:57:23;4.38;;;3.40;;
33844;SDS011;20145;43.118;25.694;2023-11-21T09:59:50;6.13;;;3.67;;
33844;SDS011;20145;43.118;25.694;2023-11-21T10:02:20;5.88;;;3.47;;
33844;SDS011;20145;43.118;25.694;2023-11-21T10:04:51;5.37;;;3.20;;
33844;SDS011;20145;43.118;25.694;2023-11-21T10:07:17;3.80;;;3.00;;
33844;SDS011;20145;43.118;25.694;2023-11-21T10:09:45;3.08;;;2.70;;
33844;SDS011;20145;43.118;25.694;2023-11-21T10:12:13;7.20;;;5.00;;
33844;SDS011;20145;43.118;25.694;2023-11-21T10:14:42;5.15;;;3.35;;
33844;SDS011;20145;43.118;25.694;2023-11-21T10:17:12;7.60;;;4.15;;
33844;SDS011;20145;43.118;25.694;2023-11-21T10:19:41;9.27;;;4.80;;
33844;SDS011;20145;43.118;25.694;2023-11-21T10:22:07;6.97;;;4.32;;
33844;SDS011;20145;43.118;25.694;2023-11-21T10:24:34;5.97;;;3.70;;
33844;SDS011;20145;43.118;25.694;2023-11-21T10:27:00;6.97;;;3.78;;
33844;SDS011;20145;43.118;25.694;2023-11-21T10:29:29;5.57;;;4.45;;
33844;SDS011;20145;43.118;25.694;2023-11-21T10:31:55;5.40;;;3.67;;
33844;SDS011;20145;43.118;25.694;2023-11-21T10:34:23;9.18;;;4.15;;
33844;SDS011;20145;43.118;25.694;2023-11-21T10:36:50;5.88;;;4.25;;
33844;SDS011;20145;43.118;25.694;2023-11-21T10:39:19;8.57;;;4.95;;
33844;SDS011;20145;43.118;25.694;2023-11-21T10:41:49;7.75;;;4.70;;
33844;SDS011;20145;43.118;25.694;2023-11-21T10:44:15;7.25;;;5.00;;
33844;SDS011;20145;43.118;25.694;2023-11-21T10:46:52;4.93;;;3.92;;
33844;SDS011;20145;43.118;25.694;2023-11-21T10:49:24;4.22;;;3.25;;
33844;SDS011;20145;43.118;25.694;2023-11-21T10:51:51;5.63;;;3.00;;
33844;SDS011;20145;43.118;25.694;2023-11-21T10:54:21;5.82;;;3.25;;
33844;SDS011;20145;43.118;25.694;2023-11-21T10:56:49;5.68;;;3.30;;
33844;SDS011;20145;43.118;25.694;2023-11-21T10:59:18;9.52;;;5.90;;
33844;SDS011;20145;43.118;25.694;2023-11-21T11:01:46;8.00;;;3.60;;
33844;SDS011;20145;43.118;25.694;2023-11-21T11:04:15;11.35;;;6.80;;
33844;SDS011;20145;43.118;25.694;2023-11-21T11:06:43;34.47;;;22.77;;
33844;SDS011;20145;43.118;25.694;2023-11-21T11:09:12;34.83;;;25.02;;
33844;SDS011;20145;43.118;25.694;2023-11-21T11:11:41;7.97;;;4.88;;
33844;SDS011;20145;43.118;25.694;2023-11-21T11:14:12;7.50;;;4.03;;
33844;SDS011;20145;43.118;25.694;2023-11-21T11:16:39;39.97;;;23.55;;
33844;SDS011;20145;43.118;25.694;2023-11-21T11:19:09;27.17;;;13.43;;
33844;SDS011;20145;43.118;25.694;2023-11-21T11:27:03;2.25;;;1.50;;
33844;SDS011;20145;43.118;25.694;2023-11-21T11:30:00;2.90;;;1.17;;
33844;SDS011;20145;43.118;25.694;2023-11-21T11:37:32;1.30;;;1.13;;
33844;SDS011;20145;43.118;25.694;2023-11-21T11:39:58;8.43;;;3.28;;
33844;SDS011;20145;43.118;25.694;2023-11-21T11:42:25;2.83;;;1.85;;
33844;SDS011;20145;43.118;25.694;2023-11-21T11:44:52;1.70;;;1.30;;
33844;SDS011;20145;43.118;25.694;2023-11-21T11:52:50;4.22;;;1.40;;
33844;SDS011;20145;43.118;25.694;2023-11-21T11:55:18;1.10;;;0.93;;
33844;SDS011;20145;43.118;25.694;2023-11-21T11:57:49;2.08;;;1.80;;
33844;SDS011;20145;43.118;25.694;2023-11-21T12:02:53;1.27;;;1.05;;
33844;SDS011;20145;43.118;25.694;2023-11-21T12:05:22;4.15;;;1.27;;
33844;SDS011;20145;43.118;25.694;2023-11-21T12:07:52;2.83;;;1.30;;
33844;SDS011;20145;43.118;25.694;2023-11-21T12:10:32;1.25;;;1.08;;
33844;SDS011;20145;43.118;25.694;2023-11-21T12:13:05;2.17;;;1.13;;
33844;SDS011;20145;43.118;25.694;2023-11-21T12:15:35;2.53;;;1.80;;
33844;SDS011;20145;43.118;25.694;2023-11-21T12:18:02;2.08;;;1.88;;
33844;SDS011;20145;43.118;25.694;2023-11-21T12:20:29;2.55;;;1.25;;
33844;SDS011;20145;43.118;25.694;2023-11-21T12:22:56;2.45;;;1.30;;
33844;SDS011;20145;43.118;25.694;2023-11-21T12:25:26;3.00;;;1.33;;
33844;SDS011;20145;43.118;25.694;2023-11-21T12:30:25;2.20;;;1.13;;
33844;SDS011;20145;43.118;25.694;2023-11-21T12:32:56;3.95;;;1.35;;
33844;SDS011;20145;43.118;25.694;2023-11-21T12:35:30;3.08;;;1.45;;
33844;SDS011;20145;43.118;25.694;2023-11-21T12:37:59;3.03;;;1.27;;
33844;SDS011;20145;43.118;25.694;2023-11-21T12:40:27;2.80;;;1.50;;
33844;SDS011;20145;43.118;25.694;2023-11-21T12:42:55;1.15;;;1.10;;
33844;SDS011;20145;43.118;25.694;2023-11-21T12:45:23;1.77;;;1.33;;
33844;SDS011;20145;43.118;25.694;2023-11-21T12:48:00;1.27;;;1.17;;
33844;SDS011;20145;43.118;25.694;2023-11-21T12:50:33;1.92;;;1.15;;
33844;SDS011;20145;43.118;25.694;2023-11-21T12:58:15;2.35;;;1.10;;
33844;SDS011;20145;43.118;25.694;2023-11-21T13:00:47;1.45;;;1.20;;
33844;SDS011;20145;43.118;25.694;2023-11-21T13:03:14;1.27;;;1.10;;
33844;SDS011;20145;43.118;25.694;2023-11-21T13:05:43;2.55;;;1.08;;
33844;SDS011;20145;43.118;25.694;2023-11-21T13:08:11;1.80;;;1.10;;
33844;SDS011;20145;43.118;25.694;2023-11-21T13:10:41;1.77;;;1.33;;
33844;SDS011;20145;43.118;25.694;2023-11-21T13:13:12;2.45;;;1.67;;
33844;SDS011;20145;43.118;25.694;2023-11-21T13:15:47;2.70;;;1.92;;
33844;SDS011;20145;43.118;25.694;2023-11-21T13:18:22;2.40;;;1.60;;
33844;SDS011;20145;43.118;25.694;2023-11-21T13:20:49;2.05;;;1.70;;
33844;SDS011;20145;43.118;25.694;2023-11-21T13:23:15;2.25;;;1.20;;
33844;SDS011;20145;43.118;25.694;2023-11-21T13:25:41;2.00;;;1.35;;
33844;SDS011;20145;43.118;25.694;2023-11-21T13:28:08;7.22;;;3.95;;
33844;SDS011;20145;43.118;25.694;2023-11-21T13:30:38;2.40;;;1.70;;
33844;SDS011;20145;43.118;25.694;2023-11-21T13:33:05;3.15;;;1.40;;
33844;SDS011;20145;43.118;25.694;2023-11-21T13:35:36;2.55;;;1.55;;
33844;SDS011;20145;43.118;25.694;2023-11-21T13:40:37;1.85;;;1.10;;
33844;SDS011;20145;43.118;25.694;2023-11-21T13:43:15;5.25;;;1.60;;
33844;SDS011;20145;43.118;25.694;2023-11-21T13:45:43;1.45;;;1.35;;
33844;SDS011;20145;43.118;25.694;2023-11-21T13:48:09;11.63;;;5.65;;
33844;SDS011;20145;43.118;25.694;2023-11-21T13:50:44;4.28;;;3.10;;
33844;SDS011;20145;43.118;25.694;2023-11-21T13:53:39;2.22;;;1.83;;
33844;SDS011;20145;43.118;25.694;2023-11-21T13:56:06;1.65;;;1.17;;
33844;SDS011;20145;43.118;25.694;2023-11-21T13:58:32;1.40;;;1.30;;
33844;SDS011;20145;43.118;25.694;2023-11-21T14:01:13;2.50;;;1.40;;
33844;SDS011;20145;43.118;25.694;2023-11-21T14:04:02;1.92;;;1.20;;
33844;SDS011;20145;43.118;25.694;2023-11-21T14:06:45;2.97;;;1.23;;
33844;SDS011;20145;43.118;25.694;2023-11-21T14:09:21;1.80;;;1.40;;
33844;SDS011;20145;43.118;25.694;2023-11-21T14:11:53;1.60;;;1.30;;
33844;SDS011;20145;43.118;25.694;2023-11-21T14:16:47;2.10;;;1.50;;
33844;SDS011;20145;43.118;25.694;2023-11-21T14:19:13;2.78;;;1.63;;
33844;SDS011;20145;43.118;25.694;2023-11-21T14:21:42;1.85;;;1.55;;
33844;SDS011;20145;43.118;25.694;2023-11-21T14:24:11;2.15;;;1.50;;
33844;SDS011;20145;43.118;25.694;2023-11-21T14:26:43;1.80;;;1.70;;
33844;SDS011;20145;43.118;25.694;2023-11-21T14:29:13;2.17;;;1.92;;
33844;SDS011;20145;43.118;25.694;2023-11-21T14:31:44;3.65;;;2.00;;
33844;SDS011;20145;43.118;25.694;2023-11-21T14:34:13;4.35;;;2.70;;
33844;SDS011;20145;43.118;25.694;2023-11-21T14:36:40;2.50;;;2.30;;
33844;SDS011;20145;43.118;25.694;2023-11-21T14:39:06;5.18;;;2.78;;
33844;SDS011;20145;43.118;25.694;2023-11-21T14:41:34;4.45;;;2.40;;
33844;SDS011;20145;43.118;25.694;2023-11-21T14:44:03;3.95;;;2.33;;
33844;SDS011;20145;43.118;25.694;2023-11-21T14:46:29;3.78;;;2.63;;
33844;SDS011;20145;43.118;25.694;2023-11-21T14:48:56;5.60;;;2.33;;
33844;SDS011;20145;43.118;25.694;2023-11-21T14:51:38;4.90;;;2.80;;
33844;SDS011;20145;43.118;25.694;2023-11-21T14:54:23;6.85;;;2.53;;
33844;SDS011;20145;43.118;25.694;2023-11-21T14:57:05;2.95;;;2.05;;
33844;SDS011;20145;43.118;25.694;2023-11-21T14:59:45;4.38;;;2.30;;
33844;SDS011;20145;43.118;25.694;2023-11-21T15:02:23;4.70;;;2.40;;
33844;SDS011;20145;43.118;25.694;2023-11-21T15:05:09;5.25;;;2.05;;
33844;SDS011;20145;43.118;25.694;2023-11-21T15:07:41;3.25;;;2.40;;
33844;SDS011;20145;43.118;25.694;2023-11-21T15:10:07;4.20;;;2.20;;
33844;SDS011;20145;43.118;25.694;2023-11-21T15:12:39;3.85;;;2.80;;